Time;durP1;ratioP1;P1;durP2;ratioP2;P2;SDS_P1;SDS_P2;PMS_P1;PMS_P2;Temp;Humidity;BMP_temperature;BMP_pressure;BME280_temperature;BME280_humidity;BME280_pressure;Samples;Min_cycle;Max_cycle;Signal;HPM_P1;HPM_P2
2021/11/09 00:00:23;;;;;;;14.35;7.93;;;8.10;99.90;;;;;;2615531;46;20027;-83
2021/11/09 00:02:51;;;;;;;20.23;8.65;;;8.10;99.90;;;;;;2615129;47;20031;-81
2021/11/09 00:05:20;;;;;;;25.23;9.82;;;8.10;99.90;;;;;;2615036;54;20037;-83
2021/11/09 00:07:52;;;;;;;21.35;9.07;;;8.10;99.90;;;;;;2615195;47;20030;-80
2021/11/09 00:10:19;;;;;;;17.70;9.52;;;8.10;99.90;;;;;;2615199;47;20047;-80
2021/11/09 00:12:49;;;;;;;23.60;9.15;;;8.10;99.90;;;;;;2615155;47;20461;-80
2021/11/09 00:15:18;;;;;;;20.98;10.18;;;8.10;99.90;;;;;;2615690;47;20038;-81
2021/11/09 00:17:46;;;;;;;17.38;8.55;;;8.20;99.90;;;;;;2615164;47;20031;-80
2021/11/09 00:20:14;;;;;;;19.38;7.40;;;8.20;99.90;;;;;;2615293;51;20030;-82
2021/11/09 00:22:42;;;;;;;23.45;8.93;;;8.20;99.90;;;;;;2616039;46;20029;-80
2021/11/09 00:25:09;;;;;;;24.85;9.10;;;8.20;99.90;;;;;;2616393;46;20054;-81
2021/11/09 00:27:35;;;;;;;18.23;8.55;;;8.10;99.90;;;;;;2615672;47;20031;-80
2021/11/09 00:30:02;;;;;;;21.75;9.30;;;8.20;99.90;;;;;;2615544;54;20037;-83
2021/11/09 00:32:28;;;;;;;15.82;7.97;;;8.10;99.90;;;;;;2615029;47;20110;-82
2021/11/09 00:34:55;;;;;;;21.02;9.30;;;8.10;99.90;;;;;;2616328;47;20026;-82
2021/11/09 00:37:21;;;;;;;18.80;8.55;;;8.10;99.90;;;;;;2614880;47;20035;-83
2021/11/09 00:39:48;;;;;;;25.00;9.68;;;8.00;99.90;;;;;;2615864;54;20030;-81
2021/11/09 00:42:15;;;;;;;21.75;9.15;;;8.00;99.90;;;;;;2615310;47;20037;-84
2021/11/09 00:44:42;;;;;;;24.20;9.75;;;8.00;99.90;;;;;;2615207;47;20030;-83
2021/11/09 00:47:08;;;;;;;21.60;9.30;;;8.00;99.90;;;;;;2615718;47;20073;-83
2021/11/09 00:49:34;;;;;;;26.80;9.60;;;7.90;99.90;;;;;;2614711;47;20037;-82
2021/11/09 00:52:02;;;;;;;29.35;10.27;;;7.90;99.90;;;;;;2615050;47;20034;-81
2021/11/09 00:54:28;;;;;;;22.85;9.45;;;7.80;99.90;;;;;;2614878;47;20113;-81
2021/11/09 00:56:56;;;;;;;21.65;9.88;;;7.80;99.90;;;;;;2615272;54;20740;-82
2021/11/09 00:59:22;;;;;;;22.60;10.45;;;7.80;99.90;;;;;;2615689;54;20030;-81
2021/11/09 01:01:48;;;;;;;29.38;10.63;;;7.70;99.90;;;;;;2615562;47;20038;-82
2021/11/09 01:04:14;;;;;;;22.88;9.60;;;7.70;99.90;;;;;;2615157;54;20037;-82
2021/11/09 01:06:41;;;;;;;25.40;10.68;;;7.70;99.90;;;;;;2614823;47;20038;-82
2021/11/09 01:09:07;;;;;;;19.70;9.93;;;7.70;99.90;;;;;;2615240;54;20057;-83
2021/11/09 01:11:34;;;;;;;27.00;10.02;;;7.70;99.90;;;;;;2615812;39;20431;-80
2021/11/09 01:14:01;;;;;;;26.67;10.93;;;7.60;99.90;;;;;;2615681;54;20057;-81
2021/11/09 01:16:27;;;;;;;19.33;9.45;;;7.60;99.90;;;;;;2614583;47;20031;-79
2021/11/09 01:18:56;;;;;;;27.40;10.07;;;7.50;99.90;;;;;;2615997;39;20429;-84
2021/11/09 01:21:23;;;;;;;24.75;11.52;;;7.50;99.90;;;;;;2614684;47;20030;-83
2021/11/09 01:23:54;;;;;;;23.30;11.32;;;7.50;99.90;;;;;;2615476;54;20508;-82
2021/11/09 01:26:23;;;;;;;24.83;10.10;;;7.50;99.90;;;;;;2615391;54;20030;-82
2021/11/09 01:28:53;;;;;;;23.95;10.10;;;7.40;99.90;;;;;;2615944;47;20479;-83
2021/11/09 01:31:20;;;;;;;25.17;11.00;;;7.40;99.90;;;;;;2616394;50;20232;-83
2021/11/09 01:33:46;;;;;;;23.92;10.30;;;7.30;99.90;;;;;;2615734;54;20069;-82
2021/11/09 01:36:12;;;;;;;28.00;10.80;;;7.40;99.90;;;;;;2615349;54;20023;-82
2021/11/09 01:38:39;;;;;;;27.02;11.60;;;7.30;99.90;;;;;;2616658;54;20752;-82
2021/11/09 01:41:08;;;;;;;25.20;11.30;;;7.30;99.90;;;;;;2615803;47;20030;-83
2021/11/09 01:43:35;;;;;;;31.27;11.95;;;7.30;99.90;;;;;;2615424;46;20026;-81
2021/11/09 01:46:05;;;;;;;23.23;12.02;;;7.30;99.90;;;;;;2615805;47;20042;-82
2021/11/09 01:48:31;;;;;;;26.38;11.43;;;7.30;99.90;;;;;;2616058;47;20030;-82
2021/11/09 01:51:04;;;;;;;24.40;9.63;;;7.20;99.90;;;;;;2615771;47;20489;-82
2021/11/09 01:53:31;;;;;;;30.10;12.13;;;7.20;99.90;;;;;;2616195;47;20037;-83
2021/11/09 01:56:01;;;;;;;31.50;12.63;;;7.20;99.90;;;;;;2616252;54;20079;-82
2021/11/09 01:58:29;;;;;;;23.33;11.77;;;7.20;99.90;;;;;;2615902;47;20051;-82
2021/11/09 02:01:00;;;;;;;26.60;11.98;;;7.20;99.90;;;;;;2615543;47;20130;-81
2021/11/09 02:03:27;;;;;;;30.67;11.90;;;7.10;99.90;;;;;;2616009;54;20035;-82
2021/11/09 02:05:54;;;;;;;25.25;11.80;;;7.10;99.90;;;;;;2615949;54;20036;-83
2021/11/09 02:08:21;;;;;;;27.67;11.05;;;7.00;99.90;;;;;;2616163;54;20042;-83
2021/11/09 02:10:48;;;;;;;29.73;12.50;;;7.00;99.90;;;;;;2615688;47;20036;-83
2021/11/09 02:13:17;;;;;;;30.25;13.35;;;7.00;99.90;;;;;;2616280;46;20022;-82
2021/11/09 02:15:44;;;;;;;26.83;12.20;;;7.00;99.90;;;;;;2615718;46;20071;-83
2021/11/09 02:18:12;;;;;;;32.88;13.45;;;7.00;99.90;;;;;;2615381;47;20065;-83
2021/11/09 02:20:38;;;;;;;28.13;12.48;;;7.00;99.90;;;;;;2616511;46;20030;-82
2021/11/09 02:23:05;;;;;;;25.95;11.88;;;7.00;99.90;;;;;;2616482;47;20030;-82
2021/11/09 02:25:34;;;;;;;28.60;12.23;;;6.90;99.90;;;;;;2615318;47;20546;-82
2021/11/09 02:28:02;;;;;;;28.85;11.82;;;6.90;99.90;;;;;;2615211;47;20030;-84
2021/11/09 02:30:31;;;;;;;26.67;11.10;;;6.90;99.90;;;;;;2616037;47;20065;-83
2021/11/09 02:32:58;;;;;;;27.25;11.60;;;6.90;99.90;;;;;;2615385;54;20473;-82
2021/11/09 02:35:24;;;;;;;28.38;12.82;;;6.90;99.90;;;;;;2615372;39;20340;-84
2021/11/09 02:37:55;;;;;;;34.40;12.98;;;6.80;99.90;;;;;;2615307;47;20030;-83
2021/11/09 02:40:22;;;;;;;26.88;11.68;;;6.80;99.90;;;;;;2616045;54;20487;-82
2021/11/09 02:42:52;;;;;;;35.63;12.88;;;6.80;99.90;;;;;;2616025;46;20059;-83
2021/11/09 02:45:25;;;;;;;33.33;13.20;;;6.80;99.90;;;;;;2615405;54;20038;-82
2021/11/09 02:48:02;;;;;;;26.15;11.95;;;6.70;99.90;;;;;;2615329;47;20465;-82
2021/11/09 02:50:33;;;;;;;33.00;13.27;;;6.70;99.90;;;;;;2615206;47;20030;-83
2021/11/09 02:53:07;;;;;;;34.28;13.60;;;6.70;99.90;;;;;;2615488;46;20030;-84
2021/11/09 02:55:39;;;;;;;32.72;14.20;;;6.70;99.90;;;;;;2615170;47;20061;-81
2021/11/09 02:58:19;;;;;;;28.05;11.90;;;6.70;99.90;;;;;;2615456;47;20553;-82
2021/11/09 03:01:01;;;;;;;27.13;12.13;;;6.60;99.90;;;;;;2615833;46;20023;-83
2021/11/09 03:03:35;;;;;;;37.17;14.90;;;6.60;99.90;;;;;;2614936;47;20083;-82
2021/11/09 03:06:19;;;;;;;26.83;14.02;;;6.60;99.90;;;;;;2615784;46;20052;-82
2021/11/09 03:08:53;;;;;;;;;;;6.60;99.90;;;;;;2615474;47;20121;-82
2021/11/09 03:11:20;;;;;;;26.50;12.40;;;6.60;99.90;;;;;;2615249;54;19967;-83
2021/11/09 03:13:50;;;;;;;32.90;15.20;;;6.60;99.90;;;;;;2615495;47;20496;-82
2021/11/09 03:16:17;;;;;;;28.77;11.25;;;6.60;99.90;;;;;;2615162;47;20030;-83
2021/11/09 03:18:49;;;;;;;29.17;12.73;;;6.60;99.90;;;;;;2615595;47;20436;-81
2021/11/09 03:45:05;;;;;;;27.40;12.43;;;6.50;99.90;;;;;;2615476;47;20037;-83
2021/11/09 03:47:36;;;;;;;33.17;13.20;;;6.40;99.90;;;;;;2614347;47;20075;-82
2021/11/09 03:50:04;;;;;;;27.52;12.23;;;6.50;99.90;;;;;;2615259;46;20042;-82
2021/11/09 03:52:38;;;;;;;26.85;11.70;;;6.40;99.90;;;;;;2615510;51;20756;-83
2021/11/09 03:55:05;;;;;;;25.80;11.40;;;6.40;99.90;;;;;;2615734;47;20042;-82
2021/11/09 03:57:38;;;;;;;24.52;12.57;;;6.40;99.90;;;;;;2615860;47;20083;-83
2021/11/09 04:00:16;;;;;;;29.05;12.07;;;6.40;99.90;;;;;;2615154;47;20030;-83
2021/11/09 04:02:49;;;;;;;27.65;12.73;;;6.40;99.90;;;;;;2616094;54;20065;-83
2021/11/09 04:05:19;;;;;;;30.98;10.95;;;6.40;99.90;;;;;;2615033;47;20038;-83
2021/11/09 04:07:54;;;;;;;30.95;15.05;;;6.40;99.90;;;;;;2615684;39;20338;-81
2021/11/09 04:10:33;;;;;;;33.38;11.32;;;6.40;99.90;;;;;;2615119;47;20035;-82
2021/11/09 04:13:17;;;;;;;22.58;10.20;;;6.40;99.90;;;;;;2615335;47;20045;-83
2021/11/09 04:15:53;;;;;;;24.15;9.05;;;6.40;99.90;;;;;;2615302;47;20061;-82
2021/11/09 04:18:35;;;;;;;24.10;9.05;;;6.40;99.90;;;;;;2614553;47;20056;-83
2021/11/09 04:21:14;;;;;;;24.45;10.70;;;6.40;99.90;;;;;;2615277;47;20114;-83
2021/11/09 04:24:02;;;;;;;19.17;9.30;;;6.40;99.90;;;;;;2615335;47;20030;-84
2021/11/09 04:29:31;;;;;;;22.90;9.85;;;6.40;99.90;;;;;;2615241;47;20055;-83
2021/11/09 04:32:17;;;;;;;26.50;11.48;;;6.30;99.90;;;;;;2615100;54;20042;-83
2021/11/09 04:40:58;;;;;;;23.77;9.75;;;6.30;99.90;;;;;;2615713;47;20036;-83
2021/11/09 04:51:30;;;;;;;25.58;10.48;;;6.30;99.90;;;;;;2615780;51;20130;-83
2021/11/09 04:53:46;;;;;;;21.88;9.40;;;6.30;99.90;;;;;;2615481;47;20121;-84
2021/11/09 05:01:11;;;;;;;26.42;9.35;;;6.30;99.90;;;;;;2615561;47;20031;-83
2021/11/09 05:01:51;;;;;;;24.85;10.43;;;6.20;99.90;;;;;;2615794;47;20030;-83
2021/11/09 05:09:53;;;;;;;26.52;10.13;;;6.20;99.90;;;;;;2615687;47;20037;-83
2021/11/09 05:12:19;;;;;;;26.08;11.43;;;6.20;99.90;;;;;;2614686;47;20059;-84
2021/11/09 05:14:46;;;;;;;26.88;10.00;;;6.20;99.90;;;;;;2615055;47;20023;-83
2021/11/09 05:17:12;;;;;;;26.70;9.82;;;6.20;99.90;;;;;;2614764;47;20038;-85
2021/11/09 05:19:38;;;;;;;23.15;10.30;;;6.20;99.90;;;;;;2616024;47;20034;-84
2021/11/09 05:22:04;;;;;;;29.98;10.77;;;6.20;99.90;;;;;;2615286;54;20129;-84
2021/11/09 05:24:30;;;;;;;29.33;10.13;;;6.20;99.90;;;;;;2614344;47;20523;-83
2021/11/09 05:26:57;;;;;;;27.40;10.07;;;6.10;99.90;;;;;;2615661;47;20055;-84
2021/11/09 05:29:23;;;;;;;21.42;10.38;;;6.10;99.90;;;;;;2615238;47;20042;-83
2021/11/09 05:31:56;;;;;;;26.88;9.90;;;6.10;99.90;;;;;;2615254;39;20597;-84
2021/11/09 05:34:26;;;;;;;27.60;11.32;;;6.10;99.90;;;;;;2615006;31;20403;-83
2021/11/09 05:36:54;;;;;;;31.77;9.23;;;6.10;99.90;;;;;;2614886;47;20072;-83
2021/11/09 05:39:28;;;;;;;24.33;9.35;;;6.10;99.90;;;;;;2615170;47;20030;-84
2021/11/09 05:41:54;;;;;;;25.48;12.13;;;6.10;99.90;;;;;;2614820;47;20138;-85
2021/11/09 05:44:20;;;;;;;25.55;10.35;;;6.10;99.90;;;;;;2615038;39;20345;-84
2021/11/09 05:46:47;;;;;;;28.88;12.25;;;6.10;99.90;;;;;;2614992;47;20030;-84
2021/11/09 05:49:13;;;;;;;26.80;10.13;;;6.10;99.90;;;;;;2615132;47;20030;-84
2021/11/09 05:51:40;;;;;;;27.73;10.43;;;6.10;99.90;;;;;;2615579;54;20121;-83
2021/11/09 05:54:06;;;;;;;24.85;10.82;;;6.10;99.90;;;;;;2615244;47;20031;-84
2021/11/09 05:56:32;;;;;;;26.35;9.73;;;6.10;99.90;;;;;;2614574;54;20030;-84
2021/11/09 05:58:59;;;;;;;35.53;11.15;;;6.10;99.90;;;;;;2614990;47;20083;-83
2021/11/09 06:01:27;;;;;;;34.22;14.45;;;6.10;99.90;;;;;;2614478;47;20535;-84
2021/11/09 06:03:56;;;;;;;28.85;9.98;;;6.10;99.90;;;;;;2614483;47;20030;-83
2021/11/09 06:06:22;;;;;;;38.92;11.98;;;6.00;99.90;;;;;;2614592;47;20030;-84
2021/11/09 06:08:50;;;;;;;38.47;12.10;;;6.00;99.90;;;;;;2614985;47;20053;-84
2021/11/09 06:11:17;;;;;;;34.60;13.13;;;6.00;99.90;;;;;;2615390;46;20038;-83
2021/11/09 06:13:46;;;;;;;31.15;11.15;;;6.00;99.90;;;;;;2616929;39;20341;-84
2021/11/09 06:16:12;;;;;;;24.40;11.77;;;6.00;99.90;;;;;;2615904;39;20464;-83
2021/11/09 06:18:39;;;;;;;42.20;13.43;;;6.00;99.90;;;;;;2615118;54;20037;-84
2021/11/09 06:21:07;;;;;;;43.65;14.88;;;6.00;99.90;;;;;;2616476;31;20499;-83
2021/11/09 06:23:33;;;;;;;36.90;13.82;;;6.00;99.90;;;;;;2615286;47;20039;-84
2021/11/09 06:26:00;;;;;;;37.95;13.40;;;5.90;99.90;;;;;;2615739;47;20031;-84
2021/11/09 06:28:28;;;;;;;32.42;15.73;;;6.00;99.90;;;;;;2615332;47;20030;-83
2021/11/09 06:30:56;;;;;;;29.85;13.73;;;5.90;99.90;;;;;;2615392;47;20038;-83
2021/11/09 06:33:22;;;;;;;37.90;13.50;;;5.90;99.90;;;;;;2615231;54;20030;-84
2021/11/09 06:35:50;;;;;;;57.83;18.02;;;5.90;99.90;;;;;;2615224;47;20035;-84
2021/11/09 06:38:16;;;;;;;30.40;12.73;;;5.90;99.90;;;;;;2615186;47;20030;-83
2021/11/09 06:40:43;;;;;;;35.90;12.25;;;5.90;99.90;;;;;;2615454;47;20031;-84
2021/11/09 06:43:09;;;;;;;29.30;11.35;;;5.90;99.90;;;;;;2615462;47;20030;-84
2021/11/09 06:45:35;;;;;;;32.70;12.00;;;5.90;99.90;;;;;;2616744;39;20527;-84
2021/11/09 06:48:02;;;;;;;38.88;12.93;;;5.90;99.90;;;;;;2615324;54;20031;-84
2021/11/09 06:50:30;;;;;;;31.98;12.35;;;5.90;99.90;;;;;;2615492;47;20056;-84
2021/11/09 06:52:57;;;;;;;28.55;13.27;;;5.90;99.90;;;;;;2616268;47;20069;-85
2021/11/09 06:55:23;;;;;;;37.90;13.45;;;5.90;99.90;;;;;;2615206;46;20055;-85
2021/11/09 06:57:49;;;;;;;33.22;13.52;;;5.80;99.90;;;;;;2616561;39;20583;-85
2021/11/09 07:00:18;;;;;;;30.00;14.15;;;5.80;99.90;;;;;;2616086;54;20038;-84
2021/11/09 07:02:45;;;;;;;38.60;15.20;;;5.90;99.90;;;;;;2615124;51;20030;-84
2021/11/09 07:05:12;;;;;;;34.53;15.18;;;5.80;99.90;;;;;;2615391;46;20030;-84
2021/11/09 07:07:42;;;;;;;31.73;12.95;;;5.80;99.90;;;;;;2615469;47;20034;-84
2021/11/09 07:10:10;;;;;;;39.33;14.60;;;5.80;99.90;;;;;;2615393;54;20102;-84
2021/11/09 07:12:37;;;;;;;34.63;12.80;;;5.80;99.90;;;;;;2615523;47;20038;-84
2021/11/09 07:15:05;;;;;;;31.27;13.93;;;5.90;99.90;;;;;;2616184;47;20030;-84
2021/11/09 07:17:31;;;;;;;42.83;14.45;;;5.90;99.90;;;;;;2614747;47;20065;-84
2021/11/09 07:19:59;;;;;;;37.88;15.05;;;5.90;99.90;;;;;;2615414;46;20034;-83
2021/11/09 07:22:25;;;;;;;34.53;13.85;;;6.00;99.90;;;;;;2615129;47;20083;-84
2021/11/09 07:24:51;;;;;;;40.33;14.00;;;6.00;99.90;;;;;;2615088;46;20030;-84
2021/11/09 07:27:17;;;;;;;30.80;14.25;;;6.00;99.90;;;;;;2615148;54;20030;-84
2021/11/09 07:29:47;;;;;;;35.33;14.35;;;6.00;99.90;;;;;;2615642;54;20057;-83
2021/11/09 07:32:15;;;;;;;40.80;17.05;;;6.10;99.90;;;;;;2615161;47;20034;-85
2021/11/09 07:34:41;;;;;;;31.63;14.15;;;6.10;99.90;;;;;;2615310;47;20071;-83
2021/11/09 07:37:08;;;;;;;33.92;14.63;;;6.10;99.90;;;;;;2615854;54;20286;-85
2021/11/09 07:39:34;;;;;;;37.20;13.93;;;6.10;99.90;;;;;;2614848;47;20030;-85
2021/11/09 07:42:01;;;;;;;34.78;14.70;;;6.20;99.90;;;;;;2615938;54;20030;-85
2021/11/09 07:44:27;;;;;;;32.88;13.93;;;6.30;99.90;;;;;;2614970;54;20694;-85
2021/11/09 07:46:54;;;;;;;30.55;12.90;;;6.30;99.90;;;;;;2615683;54;20457;-85
2021/11/09 07:49:20;;;;;;;31.13;13.27;;;6.30;99.90;;;;;;2614907;54;20164;-85
2021/11/09 07:51:48;;;;;;;39.13;11.88;;;6.40;99.90;;;;;;2616089;54;20109;-85
2021/11/09 07:54:14;;;;;;;28.67;13.80;;;6.40;99.90;;;;;;2614846;49;20560;-85
2021/11/09 07:56:40;;;;;;;25.77;10.95;;;6.40;99.90;;;;;;2615958;47;20030;-85
2021/11/09 07:59:24;;;;;;;22.75;11.40;;;6.50;99.90;;;;;;2615142;47;20130;-86
2021/11/09 08:02:06;;;;;;;26.65;11.63;;;6.50;99.90;;;;;;2615189;47;20030;-85
2021/11/09 08:04:43;;;;;;;27.13;11.70;;;6.60;99.90;;;;;;2614825;54;20129;-84
2021/11/09 08:07:15;;;;;;;33.20;13.32;;;6.60;99.90;;;;;;2615488;54;20055;-84
2021/11/09 08:09:41;;;;;;;26.80;11.38;;;6.70;99.90;;;;;;2615379;47;20022;-81
2021/11/09 08:12:08;;;;;;;22.20;11.15;;;6.70;99.90;;;;;;2615577;39;20372;-80
2021/11/09 08:14:37;;;;;;;21.98;10.73;;;6.80;99.90;;;;;;2615838;47;20057;-81
2021/11/09 08:17:07;;;;;;;26.88;11.18;;;6.90;99.90;;;;;;2615366;47;20041;-82
2021/11/09 08:19:33;;;;;;;27.48;12.95;;;7.00;99.90;;;;;;2615402;54;20098;-81
2021/11/09 08:22:03;;;;;;;24.38;12.13;;;7.10;99.90;;;;;;2615263;39;20618;-81
2021/11/09 08:24:30;;;;;;;21.58;12.55;;;7.20;99.90;;;;;;2614722;47;20571;-82
2021/11/09 08:26:57;;;;;;;23.55;11.45;;;7.30;99.90;;;;;;2615221;47;20526;-83
2021/11/09 08:29:26;;;;;;;23.45;11.20;;;7.40;99.90;;;;;;2614818;54;20054;-80
2021/11/09 08:31:56;;;;;;;23.27;11.27;;;7.40;99.90;;;;;;2614684;47;20049;-83
2021/11/09 08:34:24;;;;;;;30.40;11.70;;;7.50;99.90;;;;;;2614779;47;20030;-81
2021/11/09 08:36:52;;;;;;;21.35;10.93;;;7.50;99.90;;;;;;2615175;47;20068;-83
2021/11/09 08:39:22;;;;;;;30.33;11.80;;;7.60;99.90;;;;;;2614872;47;20038;-84
2021/11/09 08:42:10;;;;;;;31.58;11.70;;;7.60;99.90;;;;;;2615161;47;20069;-85
2021/11/09 08:44:43;;;;;;;27.42;11.48;;;7.70;99.90;;;;;;2614964;54;20437;-85
2021/11/09 08:47:12;;;;;;;30.95;11.32;;;7.70;99.90;;;;;;2614806;47;20102;-86
2021/11/09 08:49:38;;;;;;;24.38;11.32;;;7.80;99.90;;;;;;2615170;54;20059;-85
2021/11/09 08:52:10;;;;;;;31.08;12.95;;;7.80;99.90;;;;;;2615066;47;20055;-86
2021/11/09 08:54:37;;;;;;;23.83;12.07;;;7.90;99.90;;;;;;2614983;47;20037;-85
2021/11/09 08:57:20;;;;;;;21.50;12.20;;;7.90;99.90;;;;;;2615950;47;20467;-86
2021/11/09 09:05:06;;;;;;;28.40;12.82;;;8.00;99.90;;;;;;2615674;54;20062;-85
2021/11/09 09:07:33;;;;;;;27.58;14.05;;;8.10;99.90;;;;;;2615582;39;20337;-85
2021/11/09 09:10:01;;;;;;;33.63;14.77;;;8.00;99.90;;;;;;2615957;47;20063;-85
2021/11/09 09:12:30;;;;;;;28.83;14.55;;;8.00;99.90;;;;;;2614851;54;20061;-86
2021/11/09 09:14:57;;;;;;;30.23;14.57;;;8.00;99.90;;;;;;2615451;39;20439;-85
2021/11/09 09:17:25;;;;;;;28.17;15.00;;;8.10;99.90;;;;;;2614541;47;20030;-84
2021/11/09 09:19:56;;;;;;;34.85;13.18;;;8.10;99.90;;;;;;2615108;54;20030;-84
2021/11/09 09:22:34;;;;;;;26.13;12.02;;;8.10;99.90;;;;;;2615076;47;20030;-84
2021/11/09 09:25:11;;;;;;;29.52;13.85;;;8.20;99.90;;;;;;2615356;47;20065;-85
2021/11/09 09:30:30;;;;;;;28.00;14.95;;;8.20;99.90;;;;;;2615387;47;20075;-85
2021/11/09 09:33:07;;;;;;;30.27;13.07;;;8.30;99.90;;;;;;2615102;47;20030;-85
2021/11/09 09:54:30;;;;;;;23.63;12.30;;;8.50;99.90;;;;;;2616636;47;20030;-83
2021/11/09 09:56:52;;;;;;;24.35;12.77;;;8.60;99.90;;;;;;2616226;54;20037;-83
2021/11/09 09:59:21;;;;;;;24.42;12.63;;;8.70;99.90;;;;;;2615027;54;20035;-83
2021/11/09 10:02:05;;;;;;;21.23;11.75;;;8.70;99.90;;;;;;2615628;47;20030;-82
2021/11/09 10:04:35;;;;;;;22.35;11.77;;;8.80;99.90;;;;;;2616038;39;20561;-84
2021/11/09 10:07:03;;;;;;;27.58;12.57;;;8.80;99.90;;;;;;2615853;47;20030;-83
2021/11/09 10:09:38;;;;;;;24.15;11.73;;;8.90;99.90;;;;;;2614836;47;20034;-83
2021/11/09 10:12:19;;;;;;;26.10;13.23;;;9.00;99.90;;;;;;2615926;47;20031;-86
2021/11/09 10:14:49;;;;;;;27.25;12.60;;;9.00;99.90;;;;;;2615757;47;20141;-82
2021/11/09 10:17:20;;;;;;;27.90;12.88;;;9.10;99.90;;;;;;2615102;54;20030;-81
2021/11/09 10:19:48;;;;;;;22.75;10.32;;;9.20;99.90;;;;;;2616152;54;20031;-82
2021/11/09 10:22:20;;;;;;;24.75;12.38;;;9.30;99.90;;;;;;2615409;54;20030;-85
2021/11/09 10:24:51;;;;;;;24.42;11.95;;;9.40;99.90;;;;;;2616607;39;20314;-86
2021/11/09 10:27:18;;;;;;;24.27;10.38;;;9.40;99.90;;;;;;2615592;53;20030;-82
2021/11/09 10:29:45;;;;;;;29.77;10.75;;;9.50;99.90;;;;;;2615829;54;20036;-82
2021/11/09 10:32:15;;;;;;;27.85;11.38;;;9.60;99.90;;;;;;2615084;54;20042;-84
2021/11/09 10:34:44;;;;;;;21.00;9.70;;;9.60;99.90;;;;;;2615593;47;20456;-80
2021/11/09 10:37:25;;;;;;;21.92;10.52;;;9.70;99.90;;;;;;2615554;54;20146;-81
2021/11/09 10:39:53;;;;;;;29.80;10.75;;;9.80;99.90;;;;;;2615244;47;20030;-81
2021/11/09 10:42:22;;;;;;;28.48;10.40;;;9.90;99.90;;;;;;2615518;47;20038;-81
2021/11/09 10:44:57;;;;;;;30.45;11.60;;;10.00;99.90;;;;;;2615507;54;20037;-82
2021/11/09 10:47:27;;;;;;;22.92;9.20;;;10.00;99.90;;;;;;2615769;39;20397;-79
2021/11/09 10:50:00;;;;;;;25.63;9.65;;;10.10;99.90;;;;;;2615350;47;20034;-84
2021/11/09 10:52:31;;;;;;;22.98;9.90;;;10.10;99.90;;;;;;2615058;47;20034;-81
2021/11/09 10:55:06;;;;;;;26.92;11.40;;;10.20;99.90;;;;;;2615319;54;20030;-81
2021/11/09 10:57:42;;;;;;;21.17;10.20;;;10.20;99.90;;;;;;2615407;47;20030;-85
2021/11/09 11:05:20;;;;;;;26.67;10.00;;;10.30;99.90;;;;;;2616054;39;20317;-85
2021/11/09 11:07:56;;;;;;;25.05;9.70;;;10.30;99.90;;;;;;2615408;54;20037;-84
2021/11/09 11:10:32;;;;;;;19.65;9.98;;;10.30;99.90;;;;;;2615165;47;20030;-84
2021/11/09 11:13:21;;;;;;;20.00;8.75;;;10.40;99.90;;;;;;2615514;54;20441;-82
2021/11/09 11:16:00;;;;;;;24.17;9.65;;;10.40;99.90;;;;;;2615250;51;20030;-81
2021/11/09 11:18:34;;;;;;;24.48;10.68;;;10.40;99.90;;;;;;2614369;54;20034;-83
2021/11/09 11:21:00;;;;;;;;;;;10.40;99.90;;;;;;2615427;47;20037;-84
2021/11/09 11:23:28;;;;;;;24.20;10.80;;;10.50;99.90;;;;;;2615507;39;20269;-82
2021/11/09 11:25:54;;;;;;;21.90;9.35;;;10.50;99.90;;;;;;2615296;39;20356;-86
2021/11/09 11:28:21;;;;;;;19.33;8.93;;;10.50;99.90;;;;;;2615247;47;20079;-78
2021/11/09 11:30:49;;;;;;;30.83;12.63;;;10.50;99.90;;;;;;2615125;54;20068;-80
2021/11/09 11:33:16;;;;;;;29.83;10.82;;;10.60;99.90;;;;;;2614308;47;20055;-83
2021/11/09 11:35:44;;;;;;;23.85;11.80;;;10.60;99.90;;;;;;2615527;47;20055;-78
2021/11/09 11:38:16;;;;;;;24.23;11.07;;;10.50;99.90;;;;;;2614510;47;20055;-82
2021/11/09 11:40:43;;;;;;;27.95;10.82;;;10.60;99.90;;;;;;2615133;54;20030;-79
2021/11/09 11:43:11;;;;;;;29.13;11.82;;;10.50;99.90;;;;;;2614646;47;20138;-84
2021/11/09 11:45:46;;;;;;;25.40;11.38;;;10.50;99.90;;;;;;2615940;39;20578;-84
2021/11/09 11:48:12;;;;;;;27.70;11.18;;;10.50;99.90;;;;;;2614411;47;20117;-82
2021/11/09 11:50:43;;;;;;;24.88;12.27;;;10.50;99.90;;;;;;2615299;47;20057;-80
2021/11/09 11:53:10;;;;;;;27.05;11.13;;;10.50;99.90;;;;;;2614656;47;20037;-87
2021/11/09 11:55:37;;;;;;;32.83;12.40;;;10.50;99.90;;;;;;2615044;54;20030;-82
2021/11/09 11:58:06;;;;;;;33.83;11.07;;;10.50;99.90;;;;;;2615689;47;20069;-80
2021/11/09 12:00:38;;;;;;;26.30;9.63;;;10.60;99.90;;;;;;2614627;54;20037;-81
2021/11/09 12:03:34;;;;;;;29.35;11.25;;;10.60;99.90;;;;;;2614518;47;20172;-83
2021/11/09 12:06:15;;;;;;;20.40;9.98;;;10.60;99.90;;;;;;2615588;31;20408;-83
2021/11/09 12:08:49;;;;;;;25.42;10.85;;;10.60;99.90;;;;;;2614869;47;20057;-85
2021/11/09 12:11:35;;;;;;;24.30;10.63;;;10.60;99.90;;;;;;2614537;54;20030;-80
2021/11/09 12:14:05;;;;;;;20.88;9.63;;;10.60;99.90;;;;;;2614789;47;20030;-78
2021/11/09 12:16:48;;;;;;;25.02;9.80;;;10.60;99.90;;;;;;2614347;54;20057;-81
